Time;durP1;ratioP1;P1;durP2;ratioP2;P2;SDS_P1;SDS_P2;PMS_P1;PMS_P2;Temp;Humidity;BMP_temperature;BMP_pressure;BME280_temperature;BME280_humidity;BME280_pressure;Samples;Min_cycle;Max_cycle;Signal;HPM_P1;HPM_P2
2021/11/16 00:00:12;;;;;;;28.85;15.20;;;;;;;-1.76;68.85;103063.33;1705665;83;21193;-60
2021/11/16 00:03:18;;;;;;;24.50;14.13;;;;;;;-1.79;69.05;103060.23;1690083;84;21367;-60
2021/11/16 00:06:24;;;;;;;28.07;16.87;;;;;;;-1.76;69.50;103061.98;1705380;83;21347;-60
2021/11/16 00:09:31;;;;;;;21.87;12.95;;;;;;;-1.70;69.67;103067.22;1678348;85;21205;-60
2021/11/16 00:12:39;;;;;;;23.05;13.55;;;;;;;-1.70;69.52;103055.13;1705422;83;21378;-60
2021/11/16 00:15:47;;;;;;;22.52;13.95;;;;;;;-1.76;69.64;103069.55;1705573;83;21327;-59
2021/11/16 00:19:01;;;;;;;23.57;12.23;;;;;;;-1.74;69.78;103061.02;1705517;83;21280;-59
2021/11/16 00:22:08;;;;;;;27.80;16.23;;;;;;;-1.71;69.69;103050.21;1677983;84;21228;-60
2021/11/16 00:28:23;;;;;;;39.10;19.05;;;;;;;-1.67;69.48;103068.48;1705562;83;21370;-60
2021/11/16 00:31:31;;;;;;;43.83;20.40;;;;;;;-1.66;69.34;103051.00;1677999;85;21264;-60
2021/11/16 00:34:38;;;;;;;48.55;21.90;;;;;;;-1.64;69.26;103057.68;1705439;83;21209;-59
2021/11/16 00:37:44;;;;;;;52.67;24.90;;;;;;;-1.65;69.05;103048.73;1705739;83;21398;-59
2021/11/16 00:40:51;;;;;;;52.33;24.30;;;;;;;-1.67;68.84;103049.25;1705481;83;21331;-60
2021/11/16 00:43:58;;;;;;;47.60;21.80;;;;;;;-1.68;68.78;103062.67;1704989;83;21355;-59
2021/11/16 00:47:07;;;;;;;41.55;17.80;;;;;;;-1.68;68.82;103056.85;1669701;84;21214;-59
2021/11/16 00:50:16;;;;;;;34.98;17.15;;;;;;;-1.68;68.71;103049.25;1697153;84;21229;-59
2021/11/16 00:53:22;;;;;;;36.90;17.80;;;;;;;-1.72;68.71;103048.45;1663438;85;21245;-59
2021/11/16 00:56:30;;;;;;;28.60;13.80;;;;;;;-1.75;68.65;103058.37;1681443;84;21809;-60
2021/11/16 00:59:39;;;;;;;19.95;10.48;;;;;;;-1.85;68.51;103053.66;1697399;84;21352;-59
2021/11/16 01:02:45;;;;;;;20.45;12.13;;;;;;;-1.97;68.58;103057.95;1697276;84;21375;-59
2021/11/16 01:05:51;;;;;;;26.70;14.47;;;;;;;-2.00;68.87;103049.06;1697239;84;21359;-60
2021/11/16 01:08:58;;;;;;;22.80;12.60;;;;;;;-2.00;68.96;103049.92;1663420;85;21269;-58
2021/11/16 01:12:05;;;;;;;22.20;12.23;;;;;;;-1.98;68.91;103044.52;1696997;83;21379;-60
2021/11/16 01:15:13;;;;;;;24.37;12.80;;;;;;;-1.97;68.94;103038.27;1663444;86;21237;-60
2021/11/16 01:18:18;;;;;;;22.80;12.47;;;;;;;-1.95;68.96;103042.67;1697145;84;21280;-59
2021/11/16 01:21:26;;;;;;;23.83;13.53;;;;;;;-1.94;68.88;103040.44;1663419;86;21229;-60
2021/11/16 01:24:35;;;;;;;22.50;12.85;;;;;;;-1.92;68.83;103047.97;1697281;84;21352;-59
2021/11/16 01:27:41;;;;;;;23.20;14.43;;;;;;;-1.91;68.79;103048.87;1663437;85;21287;-59
2021/11/16 01:30:57;;;;;;;46.08;24.27;;;;;;;-1.91;68.75;103045.73;1697958;84;21205;-59
2021/11/16 01:34:02;;;;;;;43.35;21.60;;;;;;;-1.89;68.80;103043.87;1663489;85;21240;-60
2021/11/16 01:37:09;;;;;;;30.05;15.60;;;;;;;-1.89;68.85;103042.53;1697153;84;21354;-59
2021/11/16 01:40:24;;;;;;;23.57;13.30;;;;;;;-1.88;68.74;103038.95;1682446;84;21196;-59
2021/11/16 01:43:28;;;;;;;22.98;12.15;;;;;;;-1.94;68.40;103031.04;1663508;85;21244;-59
2021/11/16 01:46:38;;;;;;;64.40;29.23;;;;;;;-2.03;68.21;103031.69;1697144;84;21861;-58
2021/11/16 01:49:45;;;;;;;70.75;32.17;;;;;;;-2.11;68.37;103032.30;1692505;85;21284;-59
2021/11/16 01:52:52;;;;;;;76.62;33.70;;;;;;;-2.11;68.58;103034.98;1692493;85;21229;-59
2021/11/16 01:55:58;;;;;;;46.00;24.25;;;;;;;-2.14;68.77;103031.02;1661829;85;21340;-59
2021/11/16 01:59:04;;;;;;;65.10;30.75;;;;;;;-2.11;69.12;103043.89;1692848;84;21287;-58
2021/11/16 02:02:11;;;;;;;56.25;26.37;;;;;;;-2.08;69.16;103033.58;1692487;85;21290;-59
2021/11/16 02:05:17;;;;;;;23.92;13.62;;;;;;;-2.10;69.24;103028.24;1692575;85;21193;-59
2021/11/16 02:08:24;;;;;;;17.65;10.38;;;;;;;-2.08;69.36;103038.46;1662300;85;21295;-58
2021/11/16 02:11:29;;;;;;;19.10;10.55;;;;;;;-2.12;69.34;103050.19;1692600;84;21221;-59
2021/11/16 02:14:36;;;;;;;27.93;14.87;;;;;;;-2.21;69.28;103050.38;1692501;85;21201;-58
2021/11/16 02:17:46;;;;;;;43.33;22.00;;;;;;;-2.32;69.51;103044.34;1692350;85;21249;-59
2021/11/16 02:20:57;;;;;;;78.35;38.58;;;;;;;-2.29;69.83;103038.91;1658080;85;21305;-59
2021/11/16 02:24:05;;;;;;;58.17;27.05;;;;;;;-2.24;69.87;103036.13;1642063;87;21248;-58
2021/11/16 02:27:12;;;;;;;45.90;22.37;;;;;;;-2.21;69.81;103035.63;1692378;85;21205;-59
2021/11/16 02:30:19;;;;;;;31.48;17.32;;;;;;;-2.18;69.81;103030.64;1692522;85;21237;-59
2021/11/16 02:33:26;;;;;;;42.13;22.95;;;;;;;-2.18;69.70;103028.86;1659181;85;21296;-59
2021/11/16 02:36:36;;;;;;;51.40;26.60;;;;;;;-2.14;69.73;103022.97;1642040;87;21213;-59
2021/11/16 02:39:44;;;;;;;36.60;21.45;;;;;;;-2.17;69.49;103034.62;1692421;85;21275;-60
2021/11/16 02:42:50;;;;;;;37.00;20.23;;;;;;;-2.16;69.47;103039.11;1662138;85;21288;-59
2021/11/16 02:45:58;;;;;;;42.60;21.33;;;;;;;-2.16;69.45;103035.08;1692647;84;21601;-59
2021/11/16 02:49:05;;;;;;;47.43;22.67;;;;;;;-2.17;69.35;103038.66;1623841;84;21224;-59
2021/11/16 02:52:12;;;;;;;39.08;21.90;;;;;;;-2.20;69.31;103037.83;1652327;85;21288;-59
2021/11/16 02:55:17;;;;;;;52.62;25.15;;;;;;;-2.19;69.33;103035.59;1636246;87;21264;-59
2021/11/16 02:58:25;;;;;;;38.83;20.02;;;;;;;-2.18;69.28;103033.33;1619014;86;21284;-59
2021/11/16 03:01:31;;;;;;;37.00;17.98;;;;;;;-2.18;69.18;103030.64;1704909;84;21346;-59
2021/11/16 03:04:39;;;;;;;36.23;16.65;;;;;;;-2.19;69.12;103036.45;1705043;84;21469;-59
2021/11/16 03:07:55;;;;;;;26.90;12.75;;;;;;;-2.19;69.09;103034.25;1670847;84;21292;-60
2021/11/16 03:10:58;;;;;;;26.75;13.20;;;;;;;-2.21;68.91;103038.75;1652069;86;21237;-59
2021/11/16 03:14:04;;;;;;;39.00;17.25;;;;;;;-2.24;68.93;103034.34;1704709;84;21422;-59
2021/11/16 03:17:11;;;;;;;34.33;15.35;;;;;;;-2.27;68.84;103037.09;1704997;84;21339;-59
2021/11/16 03:20:23;;;;;;;30.17;14.60;;;;;;;-2.30;68.84;103038.95;1671042;86;21221;-58
2021/11/16 03:23:27;;;;;;;32.60;13.90;;;;;;;-2.34;68.71;103035.43;1642346;86;21414;-60
2021/11/16 03:26:36;;;;;;;30.62;14.38;;;;;;;-2.35;68.73;103030.09;1652163;86;21277;-59
2021/11/16 03:29:55;;;;;;;32.98;14.90;;;;;;;-2.38;68.64;103033.70;1704813;84;21363;-59
2021/11/16 03:33:00;;;;;;;37.90;15.68;;;;;;;-2.39;68.56;103029.70;1670997;84;21706;-58
2021/11/16 03:36:06;;;;;;;33.45;13.13;;;;;;;-2.45;68.53;103022.69;1652108;86;21272;-59
2021/11/16 03:39:13;;;;;;;33.38;12.73;;;;;;;-2.48;68.61;103024.53;1704992;84;21714;-58
2021/11/16 03:42:20;;;;;;;35.52;13.78;;;;;;;-2.50;68.74;103033.95;1671001;84;21189;-59
2021/11/16 03:45:29;;;;;;;37.53;14.35;;;;;;;-2.50;68.80;103025.91;1652086;86;21279;-59
2021/11/16 03:48:34;;;;;;;48.80;15.68;;;;;;;-2.50;68.85;103025.91;1704764;83;21362;-58
2021/11/16 03:51:40;;;;;;;59.48;20.08;;;;;;;-2.49;68.88;103028.14;1696256;83;21232;-60
2021/11/16 03:54:47;;;;;;;53.90;22.02;;;;;;;-2.50;68.94;103028.58;1648159;86;21726;-60
2021/11/16 03:57:57;;;;;;;48.87;20.77;;;;;;;-2.52;68.85;103027.72;1696907;84;21371;-60
2021/11/16 04:01:10;;;;;;;46.58;18.35;;;;;;;-2.55;68.77;103018.39;1697276;84;21448;-59
2021/11/16 04:04:18;;;;;;;46.40;18.02;;;;;;;-2.55;68.72;103014.85;1697390;84;21253;-58
2021/11/16 04:07:22;;;;;;;53.73;18.92;;;;;;;-2.57;68.72;103028.29;1663441;85;21280;-58
2021/11/16 04:10:28;;;;;;;64.32;25.52;;;;;;;-2.59;68.85;103019.83;1697303;84;21332;-59
2021/11/16 04:13:34;;;;;;;91.87;35.52;;;;;;;-2.61;68.80;103025.22;1697293;84;21359;-60
2021/11/16 04:16:40;;;;;;;95.32;37.70;;;;;;;-2.63;68.71;103018.12;1663559;86;21257;-60
2021/11/16 04:19:45;;;;;;;90.10;33.35;;;;;;;-2.63;68.72;103023.02;1696459;84;21221;-60
2021/11/16 04:22:53;;;;;;;51.70;26.93;;;;;;;-2.66;68.72;103016.84;1697168;84;21366;-60
2021/11/16 04:26:01;;;;;;;27.95;12.85;;;;;;;-2.65;68.67;103021.28;1697273;84;21327;-59
2021/11/16 04:29:07;;;;;;;22.07;10.20;;;;;;;-2.68;68.71;103026.23;1663427;85;21264;-60
2021/11/16 04:32:15;;;;;;;26.80;11.73;;;;;;;-2.66;68.78;103014.17;1697540;84;21359;-60
2021/11/16 04:35:25;;;;;;;42.45;14.75;;;;;;;-2.66;68.81;103016.37;1697052;84;21241;-59
2021/11/16 04:38:31;;;;;;;72.25;24.55;;;;;;;-2.65;68.87;103022.63;1663155;85;21233;-60
2021/11/16 04:41:38;;;;;;;100.00;27.10;;;;;;;-2.65;68.91;103019.50;1697920;84;21399;-59
2021/11/16 04:44:48;;;;;;;57.65;23.35;;;;;;;-2.67;69.04;103022.66;1697113;84;21939;-59
2021/11/16 04:47:58;;;;;;;63.05;18.55;;;;;;;-2.68;69.05;103022.20;1697016;84;21376;-60
2021/11/16 05:04:19;;;;;;;;;;;;;;;-2.92;69.15;103036.06;1680323;84;21228;-60
2021/11/16 05:07:28;;;;;;;66.40;29.45;;;;;;;-2.88;69.17;103036.87;1705375;83;20252;-60
2021/11/16 05:10:35;;;;;;;163.75;54.83;;;;;;;-2.94;68.83;103036.54;1678052;85;21268;-59
2021/11/16 05:13:43;;;;;;;104.17;40.05;;;;;;;-3.10;68.84;103055.11;1706102;83;21368;-60
2021/11/16 05:16:51;;;;;;;113.72;43.55;;;;;;;-3.12;69.27;103044.86;1677600;85;21775;-60
2021/11/16 05:19:57;;;;;;;183.35;71.28;;;;;;;-3.06;69.45;103044.79;1705289;83;21446;-60
2021/11/16 05:23:02;;;;;;;240.20;89.55;;;;;;;-3.01;69.35;103053.61;1704961;83;21224;-61
2021/11/16 05:26:07;;;;;;;213.70;80.32;;;;;;;-2.99;69.38;103048.22;1705535;82;21366;-60
2021/11/16 05:29:14;;;;;;;288.50;100.25;;;;;;;-2.94;69.61;103050.37;1677791;84;21243;-59
2021/11/16 05:32:20;;;;;;;198.90;74.60;;;;;;;-2.94;69.33;103044.58;1677962;84;21244;-60
2021/11/16 05:35:27;;;;;;;180.87;71.05;;;;;;;-2.94;69.52;103052.61;1685518;82;21237;-61
2021/11/16 05:38:36;;;;;;;148.22;61.55;;;;;;;-2.87;69.68;103050.23;1704952;84;21242;-60
2021/11/16 05:41:42;;;;;;;139.57;57.43;;;;;;;-2.78;69.62;103063.52;1704774;83;21360;-60
2021/11/16 05:44:48;;;;;;;90.28;41.15;;;;;;;-2.71;69.45;103060.27;1705639;83;21222;-60
2021/11/16 05:48:01;;;;;;;88.60;38.90;;;;;;;-2.64;69.37;103053.43;1678942;85;21826;-61
2021/11/16 05:51:09;;;;;;;122.45;54.20;;;;;;;-2.66;69.07;103064.63;1690973;83;21217;-61
2021/11/16 05:54:19;;;;;;;138.72;59.45;;;;;;;-2.65;69.28;103065.08;1656280;85;21248;-60
2021/11/16 05:57:23;;;;;;;117.10;54.85;;;;;;;-2.56;69.37;103063.56;1658444;85;21237;-61
2021/11/16 06:00:28;;;;;;;90.22;42.08;;;;;;;-2.47;69.35;103064.73;1660136;85;21223;-59
2021/11/16 06:03:38;;;;;;;54.73;27.73;;;;;;;-2.43;69.23;103077.63;1657106;85;21244;-60
2021/11/16 06:06:44;;;;;;;53.08;27.40;;;;;;;-2.38;69.19;103073.94;1661625;86;21197;-60
2021/11/16 06:09:50;;;;;;;62.67;30.50;;;;;;;-2.34;69.13;103073.42;1661423;86;21224;-59
2021/11/16 06:12:56;;;;;;;50.03;27.10;;;;;;;-2.23;69.21;103077.69;1660035;86;21786;-60
2021/11/16 06:16:02;;;;;;;52.15;26.10;;;;;;;-2.12;69.22;103072.99;1659802;86;21272;-60
2021/11/16 06:19:11;;;;;;;55.63;29.12;;;;;;;-1.97;69.06;103082.10;1660749;85;21315;-60
2021/11/16 06:22:16;;;;;;;55.75;26.20;;;;;;;-1.85;68.86;103079.16;1661790;85;21209;-59
2021/11/16 06:25:22;;;;;;;53.42;24.70;;;;;;;-1.79;68.64;103077.67;1657789;86;22152;-60
2021/11/16 06:28:28;;;;;;;53.28;22.77;;;;;;;-1.69;68.61;103073.00;1662305;85;21244;-60
2021/11/16 06:31:33;;;;;;;56.53;23.52;;;;;;;-1.65;68.42;103073.38;1662110;86;21208;-60
2021/11/16 06:34:39;;;;;;;61.28;22.10;;;;;;;-1.59;68.41;103066.52;1662661;85;21544;-60
2021/11/16 06:37:44;;;;;;;46.10;21.10;;;;;;;-1.48;68.48;103065.83;1663161;85;21289;-60
2021/11/16 06:40:50;;;;;;;40.58;16.15;;;;;;;-1.34;68.34;103065.50;1662527;86;21213;-60
2021/11/16 06:43:58;;;;;;;20.30;12.18;;;;;;;-1.22;68.20;103062.55;1662230;86;21310;-61
2021/11/16 06:47:06;;;;;;;36.42;19.27;;;;;;;-1.10;68.06;103052.84;1662008;86;21225;-60
2021/11/16 06:50:12;;;;;;;37.35;15.90;;;;;;;-0.97;67.91;103051.62;1662168;86;21768;-59
2021/11/16 06:53:19;;;;;;;36.60;17.05;;;;;;;-0.86;67.74;103063.90;1665994;83;21720;-61
2021/11/16 06:56:25;;;;;;;40.33;17.85;;;;;;;-0.74;67.62;103064.03;1677612;84;21795;-59
2021/11/16 06:59:32;;;;;;;29.37;15.90;;;;;;;-0.64;67.37;103065.57;1678887;85;21372;-60
2021/11/16 07:02:40;;;;;;;32.23;14.58;;;;;;;-0.54;67.31;103064.42;1654264;86;21243;-60
2021/11/16 07:05:52;;;;;;;31.73;14.63;;;;;;;-0.44;67.09;103057.85;1674757;85;21207;-60
2021/11/16 07:09:01;;;;;;;34.78;14.73;;;;;;;-0.34;67.07;103056.23;1677051;85;21297;-61
2021/11/16 07:12:10;;;;;;;35.73;15.00;;;;;;;-0.24;66.91;103053.70;1685903;82;21263;-60
2021/11/16 07:15:18;;;;;;;29.57;14.07;;;;;;;-0.16;66.78;103057.55;1684410;83;21290;-61
2021/11/16 07:18:24;;;;;;;28.65;14.75;;;;;;;-0.06;66.76;103061.27;1638464;84;21241;-60
2021/11/16 07:21:30;;;;;;;31.60;17.60;;;;;;;0.03;66.70;103054.75;1678460;85;21202;-59
2021/11/16 07:24:38;;;;;;;33.73;17.05;;;;;;;0.13;66.56;103066.15;1677417;84;21761;-57
2021/11/16 07:27:51;;;;;;;38.98;18.62;;;;;;;0.22;66.53;103058.69;1677429;85;21388;-57
2021/11/16 07:30:59;;;;;;;30.55;15.48;;;;;;;0.31;66.51;103062.44;1678786;85;21360;-57
2021/11/16 07:34:10;;;;;;;24.75;12.03;;;;;;;0.44;66.52;103080.02;1644100;85;21269;-57
2021/11/16 07:37:24;;;;;;;23.47;11.73;;;;;;;0.50;66.22;103073.09;1652396;85;21345;-55
2021/11/16 07:40:30;;;;;;;21.90;11.33;;;;;;;0.48;65.91;103074.94;1654914;85;21428;-55
2021/11/16 07:43:36;;;;;;;16.55;10.00;;;;;;;0.52;65.82;103075.73;1678578;84;21819;-55
2021/11/16 07:46:42;;;;;;;22.15;9.33;;;;;;;0.54;65.79;103068.02;1678091;84;21203;-55
2021/11/16 07:49:57;;;;;;;16.50;9.35;;;;;;;0.58;65.87;103071.05;1678723;85;21368;-56
2021/11/16 07:53:28;;;;;;;19.55;8.40;;;;;;;0.65;65.98;103066.36;1679504;84;21786;-56
2021/11/16 07:56:35;;;;;;;11.25;5.90;;;;;;;0.73;65.98;103071.91;1710049;83;21248;-55
2021/11/16 07:59:44;;;;;;;13.53;5.58;;;;;;;0.84;65.69;103067.55;1715733;83;21226;-55
2021/11/16 08:03:02;;;;;;;9.00;5.35;;;;;;;0.90;65.46;103084.42;1697592;83;21862;-56
2021/11/16 08:12:37;;;;;;;10.88;5.35;;;;;;;1.12;65.03;103067.06;1685192;83;21234;-55
2021/11/16 08:15:40;;;;;;;7.70;5.42;;;;;;;1.25;65.01;103073.34;1675384;84;21192;-55
2021/11/16 08:19:02;;;;;;;8.35;5.40;;;;;;;1.38;64.58;103063.91;1695968;83;21815;-55
2021/11/16 08:22:07;;;;;;;12.65;5.50;;;;;;;1.45;63.84;103065.93;1690945;83;21226;-55
2021/11/16 08:25:13;;;;;;;11.90;6.03;;;;;;;1.52;63.43;103056.21;1673954;84;21739;-55
2021/11/16 08:28:22;;;;;;;9.35;5.12;;;;;;;1.58;63.28;103052.44;1691710;83;21245;-55
2021/11/16 08:31:32;;;;;;;7.55;5.15;;;;;;;1.66;62.85;103053.50;1678309;83;21716;-56
2021/11/16 08:34:41;;;;;;;10.68;5.50;;;;;;;1.71;62.44;103045.67;1695368;84;21776;-55
2021/11/16 08:37:47;;;;;;;7.20;5.03;;;;;;;1.76;62.19;103046.86;1691394;83;22052;-55
2021/11/16 08:40:58;;;;;;;8.88;5.12;;;;;;;1.83;61.99;103038.47;1676347;84;21740;-55
2021/11/16 08:44:14;;;;;;;10.18;5.00;;;;;;;1.94;61.98;103041.66;1672222;84;21274;-54
2021/11/16 08:47:20;;;;;;;7.12;4.70;;;;;;;2.07;61.82;103033.98;1690732;83;21308;-59
2021/11/16 08:50:44;;;;;;;9.20;5.47;;;;;;;2.15;61.24;103015.66;1687178;83;21220;-59
2021/11/16 08:53:50;;;;;;;8.23;4.95;;;;;;;2.21;60.82;103016.78;1682724;83;21234;-61
2021/11/16 08:56:57;;;;;;;12.35;5.10;;;;;;;2.26;60.31;103013.44;1682925;84;21258;-60
2021/11/16 09:00:07;;;;;;;8.30;4.87;;;;;;;2.32;60.19;103009.14;1678876;84;21393;-60
2021/11/16 09:03:19;;;;;;;7.60;4.75;;;;;;;2.41;60.02;103000.70;1676793;84;21222;-60
2021/11/16 09:06:30;;;;;;;8.53;4.55;;;;;;;2.54;59.66;103003.30;1676340;84;21735;-60
2021/11/16 09:09:36;;;;;;;8.33;5.00;;;;;;;2.58;59.04;102979.27;1669569;84;21261;-61
2021/11/16 09:13:04;;;;;;;6.35;4.62;;;;;;;2.63;58.77;102982.67;1669298;84;21206;-59
2021/11/16 09:16:14;;;;;;;8.95;4.40;;;;;;;2.69;58.41;102971.60;1661307;85;21631;-60
2021/11/16 09:19:41;;;;;;;11.40;5.08;;;;;;;2.71;58.12;102969.73;1663471;84;21228;-60
2021/11/16 09:22:47;;;;;;;7.70;4.60;;;;;;;2.79;57.56;102964.39;1665962;84;21595;-60
2021/11/16 09:26:03;;;;;;;8.45;5.00;;;;;;;2.83;56.96;102955.68;1659031;84;21241;-60
2021/11/16 09:29:07;;;;;;;9.73;5.97;;;;;;;2.82;56.87;102949.88;1668570;84;21278;-60
2021/11/16 09:32:17;;;;;;;7.67;5.53;;;;;;;2.85;56.88;102941.63;1664235;84;21875;-59
2021/11/16 09:35:23;;;;;;;8.03;5.20;;;;;;;2.88;56.57;102933.38;1662497;85;21244;-60
2021/11/16 09:38:57;;;;;;;20.00;10.23;;;;;;;2.89;56.54;102933.31;1654861;84;21357;-59
2021/11/16 09:42:09;;;;;;;8.43;5.30;;;;;;;2.99;56.52;102928.39;1665588;85;21246;-58
2021/11/16 09:45:25;;;;;;;7.55;3.98;;;;;;;3.15;56.04;102925.44;1678884;84;21388;-58
2021/11/16 09:48:32;;;;;;;6.20;3.98;;;;;;;3.18;55.32;102915.83;1677497;85;21846;-59
2021/11/16 09:51:37;;;;;;;12.30;7.17;;;;;;;3.22;55.37;102910.67;1678103;84;21783;-58
2021/11/16 09:55:03;;;;;;;8.63;4.87;;;;;;;3.30;55.25;102908.52;1680851;84;21231;-58
2021/11/16 09:58:16;;;;;;;10.82;5.03;;;;;;;3.42;55.21;102907.98;1678531;83;21388;-58
2021/11/16 10:01:32;;;;;;;9.78;4.47;;;;;;;3.50;54.50;102894.98;1677567;85;21863;-59
2021/11/16 10:04:46;;;;;;;6.35;4.05;;;;;;;3.57;54.25;102896.94;1676930;85;21211;-61
2021/11/16 10:07:48;;;;;;;6.85;4.40;;;;;;;3.67;54.28;102886.95;1677020;85;21285;-59
2021/11/16 10:10:56;;;;;;;6.70;3.90;;;;;;;3.78;54.06;102887.34;1677441;85;21357;-59
2021/11/16 10:14:02;;;;;;;6.53;3.80;;;;;;;3.87;53.50;102877.91;1677415;85;21392;-59
2021/11/16 10:17:07;;;;;;;7.22;4.65;;;;;;;3.90;52.58;102875.91;1677429;85;22171;-59
2021/11/16 10:20:15;;;;;;;5.72;4.40;;;;;;;3.89;52.67;102878.23;1677825;85;21375;-59
2021/11/16 10:23:44;;;;;;;8.95;4.50;;;;;;;3.95;52.57;102872.52;1677323;84;21281;-58
2021/11/16 10:26:46;;;;;;;6.90;4.10;;;;;;;4.02;52.54;102869.92;1676732;85;21755;-59
2021/11/16 10:29:54;;;;;;;5.30;3.92;;;;;;;4.14;52.15;102881.98;1677053;85;21352;-58
2021/11/16 10:33:25;;;;;;;5.97;3.87;;;;;;;4.24;51.84;102866.58;1677544;85;21432;-59
2021/11/16 10:36:32;;;;;;;5.65;4.03;;;;;;;4.35;51.60;102874.17;1678917;85;21230;-58
2021/11/16 10:39:39;;;;;;;6.12;4.08;;;;;;;4.47;51.62;102865.45;1679085;85;21380;-59
2021/11/16 10:42:49;;;;;;;9.08;4.60;;;;;;;4.55;51.39;102853.24;1678752;84;21376;-58
2021/11/16 10:45:59;;;;;;;8.60;5.40;;;;;;;4.57;51.14;102846.38;1679670;84;21356;-53
2021/11/16 10:49:09;;;;;;;17.48;9.23;;;;;;;4.63;50.86;102853.34;1679699;84;21408;-54
2021/11/16 10:52:17;;;;;;;41.75;22.77;;;;;;;4.60;50.68;102840.33;1679592;84;21460;-53
2021/11/16 10:55:23;;;;;;;11.50;6.28;;;;;;;4.63;50.81;102846.06;1670655;85;21285;-56
2021/11/16 10:58:47;;;;;;;8.30;5.17;;;;;;;4.68;50.87;102838.58;1675636;84;21275;-53
2021/11/16 11:02:02;;;;;;;8.70;4.17;;;;;;;4.75;50.78;102840.03;1669549;86;21939;-54
2021/11/16 11:05:09;;;;;;;6.05;4.00;;;;;;;4.85;50.34;102834.54;1674645;85;21215;-54
2021/11/16 11:08:18;;;;;;;7.53;4.70;;;;;;;4.94;49.90;102829.09;1680931;85;21224;-55
2021/11/16 11:11:33;;;;;;;6.55;4.75;;;;;;;4.97;49.77;102820.31;1679482;83;21237;-53
2021/11/16 11:14:46;;;;;;;7.33;4.67;;;;;;;5.04;49.78;102816.33;1653877;86;21780;-54
2021/11/16 11:17:53;;;;;;;7.58;4.83;;;;;;;5.09;49.47;102808.80;1653547;86;21778;-55
2021/11/16 11:20:58;;;;;;;6.62;4.67;;;;;;;5.12;49.26;102802.34;1648084;86;21285;-55
2021/11/16 11:24:07;;;;;;;8.80;5.10;;;;;;;5.17;48.99;102801.62;1635646;85;21778;-54
2021/11/16 11:27:30;;;;;;;10.85;5.70;;;;;;;5.24;48.93;102793.05;1676478;85;21788;-55
2021/11/16 11:30:28;;;;;;;10.38;6.12;;;;;;;5.36;48.74;102788.80;1651984;85;21220;-55
2021/11/16 11:33:56;;;;;;;10.78;5.30;;;;;;;5.45;49.60;102781.03;1830567;76;22803;-54
2021/11/16 11:37:18;;;;;;;9.10;5.67;;;;;;;5.46;50.45;102779.16;1768233;77;21291;-54
2021/11/16 11:40:40;;;;;;;6.53;4.35;;;;;;;5.49;49.49;102784.42;1791964;78;21243;-54
2021/11/16 11:43:48;;;;;;;6.80;4.60;;;;;;;5.54;48.75;102773.72;1758360;79;21770;-54
2021/11/16 11:47:05;;;;;;;4.92;3.87;;;;;;;5.61;48.23;102768.81;1752948;77;21236;-55
2021/11/16 11:50:13;;;;;;;5.72;3.92;;;;;;;5.68;47.88;102768.38;1774335;79;21829;-56
2021/11/16 11:53:25;;;;;;;9.53;4.30;;;;;;;5.69;47.59;102763.33;1768499;78;21247;-57
2021/11/16 11:56:31;;;;;;;10.18;4.10;;;;;;;5.61;47.46;102760.66;1768428;78;21181;-55
2021/11/16 11:59:38;;;;;;;6.67;4.25;;;;;;;5.61;47.24;102753.88;1754189;79;21228;-54
2021/11/16 12:02:43;;;;;;;5.55;4.20;;;;;;;5.54;47.27;102749.27;1779653;78;21209;-54
2021/11/16 12:05:51;;;;;;;8.83;5.72;;;;;;;5.57;47.16;102751.80;1770521;77;21194;-54
2021/11/16 12:09:01;;;;;;;14.03;7.45;;;;;;;5.66;46.85;102736.84;1786510;77;21197;-54
2021/11/16 12:12:08;;;;;;;9.68;5.00;;;;;;;5.74;46.83;102733.20;1736514;79;21208;-54
2021/11/16 12:15:22;;;;;;;7.35;4.20;;;;;;;5.83;46.59;102732.70;1765401;79;21262;-55
2021/11/16 12:18:44;;;;;;;7.40;4.57;;;;;;;5.87;46.32;102720.20;1787080;76;21490;-54
2021/11/16 12:21:53;;;;;;;13.05;5.33;;;;;;;5.88;46.18;102719.72;1779180;76;21866;-53
2021/11/16 12:25:05;;;;;;;11.28;4.95;;;;;;;5.88;46.15;102711.56;1748717;77;21828;-54
2021/11/16 12:28:36;;;;;;;9.05;5.30;;;;;;;5.84;46.24;102699.98;1776616;79;21767;-56
2021/11/16 12:31:46;;;;;;;8.65;4.70;;;;;;;5.94;46.18;102709.84;1776428;79;21502;-55
2021/11/16 12:34:55;;;;;;;6.28;4.05;;;;;;;5.92;45.80;102691.37;1743825;80;21824;-55
2021/11/16 12:38:03;;;;;;;10.10;5.08;;;;;;;5.85;45.75;102692.72;1716041;80;21236;-54
2021/11/16 12:41:36;;;;;;;15.40;7.92;;;;;;;5.84;45.95;102695.91;1694506;79;21802;-54
2021/11/16 12:44:59;;;;;;;23.75;8.15;;;;;;;5.84;45.76;102690.95;1689377;81;21285;-53
2021/11/16 12:48:07;;;;;;;12.07;6.83;;;;;;;5.81;45.95;102696.53;1749871;79;21260;-54
2021/11/16 12:51:24;;;;;;;7.62;4.92;;;;;;;5.81;45.80;102688.38;1768151;78;21225;-55
2021/11/16 12:54:34;;;;;;;;;;;;;;;5.87;45.77;102690.30;1782121;77;21236;-54
2021/11/16 12:57:41;;;;;;;8.88;4.75;;;;;;;5.88;45.85;102692.03;1762909;79;20479;-54
2021/11/16 13:00:52;;;;;;;12.10;5.28;;;;;;;5.88;45.67;102678.95;1774086;77;21267;-55
2021/11/16 13:04:07;;;;;;;9.78;5.03;;;;;;;5.92;45.41;102680.50;1780672;79;21285;-54
2021/11/16 13:07:34;;;;;;;7.53;5.17;;;;;;;5.82;45.25;102672.48;1754655;78;21193;-55
2021/11/16 13:10:56;;;;;;;6.67;4.25;;;;;;;5.70;45.40;102674.06;1777056;76;22711;-55
2021/11/16 13:14:03;;;;;;;13.13;7.67;;;;;;;5.61;45.63;102669.14;1763575;79;21255;-55
2021/11/16 13:17:11;;;;;;;11.20;6.67;;;;;;;5.52;45.72;102660.64;1754510;80;21732;-55
2021/11/16 13:20:19;;;;;;;11.45;5.53;;;;;;;5.44;45.74;102672.45;1725934;80;21208;-56
2021/11/16 13:23:33;;;;;;;8.68;5.05;;;;;;;5.34;45.81;102661.71;1740403;79;21236;-54
2021/11/16 13:26:58;;;;;;;12.60;5.55;;;;;;;5.23;46.08;102664.16;1764619;79;21256;-54
2021/11/16 13:30:23;;;;;;;;;;;;;;;5.13;46.25;102655.65;1762396;77;21713;-54
2021/11/16 13:33:54;;;;;;;13.93;6.58;;;;;;;5.06;46.32;102660.16;1768070;78;20244;-56
2021/11/16 13:37:05;;;;;;;14.13;7.33;;;;;;;4.92;46.53;102660.02;1781673;76;21496;-54
2021/11/16 13:40:29;;;;;;;12.13;6.70;;;;;;;4.78;46.75;102651.28;1767854;77;21374;-54
2021/11/16 13:43:37;;;;;;;11.85;7.00;;;;;;;4.62;46.91;102643.58;1789244;76;21220;-55
2021/11/16 13:46:42;;;;;;;19.32;7.25;;;;;;;4.46;47.07;102648.95;1780306;78;21405;-56
2021/11/16 13:49:57;;;;;;;14.47;8.05;;;;;;;4.33;47.40;102649.66;1762197;79;21362;-55
2021/11/16 13:53:05;;;;;;;22.98;10.30;;;;;;;4.16;47.63;102635.66;1771681;77;21347;-55
2021/11/16 13:56:10;;;;;;;20.43;10.68;;;;;;;4.02;47.96;102637.33;1770885;78;21445;-55
2021/11/16 13:59:25;;;;;;;33.35;15.93;;;;;;;3.88;48.51;102646.18;1689572;80;21220;-55
2021/11/16 14:02:31;;;;;;;34.35;15.08;;;;;;;3.72;48.80;102646.55;1711235;81;21328;-57
2021/11/16 14:05:49;;;;;;;26.68;13.90;;;;;;;3.57;49.25;102642.38;1716780;81;21249;-56
2021/11/16 14:08:56;;;;;;;38.30;15.32;;;;;;;3.44;49.70;102651.55;1715050;79;21943;-55
2021/11/16 14:12:04;;;;;;;52.80;24.05;;;;;;;3.27;50.04;102639.33;1714376;79;21339;-56
2021/11/16 14:15:18;;;;;;;36.68;16.82;;;;;;;3.14;50.44;102640.86;1710460;80;21844;-54
2021/11/16 14:18:26;;;;;;;40.33;18.77;;;;;;;3.02;50.69;102637.40;1707868;80;21246;-54
2021/11/16 14:21:31;;;;;;;40.90;18.90;;;;;;;2.91;51.07;102634.33;1769446;78;21233;-55
2021/11/16 14:24:40;;;;;;;45.35;18.37;;;;;;;2.78;51.23;102630.44;1765268;80;21711;-56
2021/11/16 14:27:48;;;;;;;53.23;24.32;;;;;;;2.65;51.76;102631.94;1766156;77;21315;-54
2021/11/16 14:30:54;;;;;;;63.20;28.70;;;;;;;2.54;52.05;102635.61;1762694;80;21386;-54
2021/11/16 14:34:07;;;;;;;53.45;26.65;;;;;;;2.40;52.32;102638.95;1763454;78;21280;-55
2021/11/16 14:37:15;;;;;;;50.25;23.87;;;;;;;2.31;52.60;102641.19;1783702;77;21236;-55
2021/11/16 14:40:25;;;;;;;67.40;25.75;;;;;;;2.23;52.90;102636.59;1765915;80;21588;-56
2021/11/16 14:43:34;;;;;;;65.20;26.93;;;;;;;2.13;53.17;102632.53;1763716;80;21788;-54
2021/11/16 14:46:43;;;;;;;67.17;29.40;;;;;;;2.00;53.46;102627.29;1757812;79;21232;-55
2021/11/16 14:49:55;;;;;;;73.42;32.45;;;;;;;1.86;53.76;102632.38;1780681;79;21924;-57
2021/11/16 14:53:00;;;;;;;82.67;36.60;;;;;;;1.75;54.21;102625.20;1792039;78;21199;-55
2021/11/16 14:56:05;;;;;;;82.45;35.13;;;;;;;1.62;54.38;102615.89;1771223;77;21268;-56